Česky Dansk Deutsch English Español Suomi Français Magyar Italiano Nederlands norsk Polski Português svenska Türkçe

 

Het Weer

Altamira (Brazilië)

01:45, 21 augustus 2016 (GMT)

NWNNE
WE
SWSSE
Home            
Altamira Tucurui Santarem-Aeroporto Carajas / Maraba Maraba Macapa Itaituba Belem Aeroporto Imperatriz Conceicao Do Araguaia Maranhao / Carolina Airport Jacareacanga Cachimbo Oiapoque Alta Floresta Aeroporto Manaus Aeroporto Eduardo Gomes International Sao Luiz Aeroporto Cayenne / Rochambeau Porto Nacional Aeroporto Saint-Laurent-Du-Maroni Johan A. Pengel Zanderij

Om een weerknop op uw website of weblog te plaatsen, copieer onderstaande code en plak die in uw pagina. In het eerste vakje staat HTML-code, in het tweede vakje UBB-code.


Add to Google

Details

Visibility:Greater than 10000 m, 10 km, 32800 ft, 6.2 miles
Clouds:CAVOC
Temperature:23°C, 73°F
Gefühlte Temperatur:21°C, 69°F
Dew-point:22°C, 72°F
Atmospheric pressure:1013 hPa, 759.8 mmHg, 29.91 inHg, 1.000 atm
Relative humidity:94.1 %
METAR:SBHT 210145Z 00000KT CAVOK 23/22 Q1013

Snelkoppelingen

Actuele weersinformatie van de hele wereld. Voeg locaties toe met het plus (+) symbool. Deze snelkoppelingen kunnen worden toegevoegd aan Google.

Lid van de Technetium groep

website free tracking
StatCounter NetStat W3C Validator

27-05-2018 12:06:25
astro.technetium.be money.technetium.be phote.technetium.be tafeltennistafel.technetium.be www.ligfiets.net